Results by/Résultats par Info:[email protected] Phone: (613)260-0994


                                      K-TOWN TRIATHLON

                                  Sunday August 4th, 2002

                           Confederation Park, Kingston, Ontario

                                Overall Results - Duathlon

  -----FINAL----- ----------------------- ------------ -------------------- ----            4km                         30 km                   7.2 km         Minus
                                                       Category                     ------RUN + T1--------    ----------BIKE--------    -------RUN + T2------- ------
    Pos     Time  Name                    City         Plc/Total Category     #      Cat  Ovr  Time     km     Cat Ovr Time  km/hr      Cat  Ovr  Time     km  Bridge
  ------  ------- ----------------------- ------------ -------------------- ----    ----------------------    ----------------------    ---------------------- ------
    1     1:28:27 Tim Blackwell           Kingston       1/5   M25 - 29      692    1      1   13:29  3:23    1      2   48:49  36.9     1      1   26:11  3:39         
    2     1:29:27 Jason Lapierre          Calgary        1/1   Elite Men     709    1      2   13:45  3:27    1      1   48:32  37.1     1      2   27:12  3:47         
    3     1:35:31 Louis Tay               Kingston       1/9   M35 - 39      722    2      5   15:21  3:51    2      6   51:13  35.2     1      3   28:58  4:02         
    4     1:38:03 Kim Kavluk              Stouffville    1/12  M45 - 49      699    1      7   15:50  3:58    1     13   52:53  34.0     1      4   29:21  4:05         
    5     1:38:16 Paul Bregin             North York     1/1   Junior Men    789    1      4   15:12  3:48    1     11   52:43  34.2     1      6   30:22  4:14         
    6     1:38:23 Rob Droughan            Toronto        1/12  M40 - 44      730    2     10   16:11  4:03    1      3   49:18  36.5     2     15   32:55  4:35         
    7     1:39:26 Kevin Hooper            Meaford        2/9   M35 - 39      704    1      3   14:38  3:40    6     27   55:14  32.6     2      5   29:35  4:07         
    8     1:40:15 Ryan Hodgkinson         Richmond Hil   2/5   M25 - 29      741    2     11   16:12  4:03    2      8   52:21  34.4     2     11   31:43  4:25         
    9     1:40:22 Randal Dyzak            Kingston       3/9   M35 - 39      787    4     12   16:13  4:04    1      4   50:50  35.4     3     18   33:20  4:38         
   10     1:40:46 Brian Lansdowne         Plainfield     1/8   M50 - 54      716    1      9   16:05  4:02    1     18   53:49  33.5     1      7   30:53  4:18         
   11     1:40:58 Paul Wilson             Kingston       1/11  M30 - 34      762    1     13   16:19  4:05    1      7   51:40  34.8     3     16   33:00  4:35         
   12     1:41:28 Glenn Vollebregt        Kingston       2/12  M40 - 44      735    1      6   15:23  3:51    4     15   52:54  34.0     3     17   33:12  4:37         
   13     1:41:53 Allan Anderson          Ottawa         3/12  M40 - 44      746    3     21   17:38  4:25    3      9   52:35  34.2     1      9   31:42  4:25         
   14     1:42:27 David Sly               Kingston       2/11  M30 - 34      790    3     16   16:57  4:15    4     16   53:21  33.8     2     13   32:09  4:28         
   15     1:42:43 Amanda Shaw             Hull           1/1   Elite Women   786    1     17   16:59  4:15    1     19   54:03  33.3     1     10   31:42  4:25         
   16 CLY 1:43:57 Erik Alstrup            Toronto        3/11  M30 - 34      792    4     22   17:41  4:26    2     10   52:42  34.2     4     19   33:35  4:40         
   17     1:45:30 Jim Borrens             Ottawa         4/9   M35 - 39      770    3      8   15:55  3:59    4     22   54:43  32.9     4     21   34:52  4:51         
   18 CLY 1:45:35 Bill Budgell            Toronto        4/11  M30 - 34      785    6     28   18:12  4:33    3     12   52:44  34.1     5     20   34:40  4:49         
   19     1:45:59 Lisa Balerna            Ottawa         1/6   W30 - 34      749    1     15   16:56  4:14    1     30   56:43  31.7     1     14   32:21  4:30         
   20     1:46:06 Omar Dabaghi            Ottawa         1/3   M20 - 24      780    1     19   17:27  4:22    1     14   52:53  34.0     2     28   35:46  4:59         
   21     1:46:29 Paul O'Blenes           Hull           4/12  M40 - 44      794    6     47   19:17  4:50    2      5   51:05  35.2     5     33   36:08  5:01         
   22     1:48:31 Bill Trenhaile          Newburgh       5/12  M40 - 44      708    4     23   18:00  4:30    6     26   55:05  32.7     4     24   35:28  4:56         
   23     1:48:41 John Barnard            Bowmanville    5/9   M35 - 39      784    5     24   18:01  4:31    5     25   55:00  32.7     6     26   35:41  4:58         
   24     1:48:56 Claire Meech            Mississauga    1/4   W20 - 24      778    1     18   17:04  4:16    1     46 1:00:30  29.8     1      8   31:23  4:22         
   25     1:49:05 Richard May             Ottawa         6/9   M35 - 39      781    9     45   19:05  4:47    3     20   54:11  33.2     7     29   35:50  4:59         
   26     1:49:41 Jim Forbes              Belleville     2/12  M45 - 49      726    3     31   18:25  4:37    2     24   54:52  32.8     2     35   36:25  5:04         
   27     1:49:55 David O'Connor          Kingston       7/9   M35 - 39      774    6     29   18:13  4:34    7     28   55:41  32.3     8     31   36:02  5:01         
   28     1:50:58 Gilbert Harboun         Oshawa         6/12  M40 - 44      744    5     25   18:08  4:32    5     23   54:51  32.8     7     45   38:00  5:17         
   29     1:51:40 Brian Cambell           Kingston       1/1   M55 - 59      690    1     43   19:01  4:46    1     33   57:31  31.3     1     23   35:09  4:53         
   30     1:52:23 Gregg Milne             Waterloo       2/3   M20 - 24      763    2     20   17:33  4:24    2     32   57:29  31.3     3     39   37:23  5:12         
   31     1:52:40 Toni D'ettorre          Ottawa         1/6   W40 - 44      757    2     59   20:16  5:04    1     17   53:41  33.5     2     50   38:44  5:23         
   32     1:52:54 Guy Dutil               Ottawa         2/8   M50 - 54      776    2     37   18:37  4:40    2     29   55:59  32.2     2     48   38:19  5:20         
   33     1:52:56 Ryan North              Kingston       3/3   M20 - 24      765    3     32   18:26  4:37    3     37   58:47  30.6     1     27   35:44  4:58         
   34     1:53:10 Gunther Klaschka        Kingston       1/2   M60 & Over    755    1     62   20:33  5:09    1     21   54:35  33.0     1     46   38:03  5:18         
   35     1:53:38 Bryan Lambert           Kingston       5/11  M30 - 34      773    2     14   16:54  4:14    9     72 1:04:51  27.8     1     12   31:54  4:26         
   36     1:53:44 Sheri McCready          Kingston       1/8   W35 - 39      798    3     48   19:19  4:50    2     36   58:27  30.8     1     30   36:00  5:00         
   37     1:54:23 Matt Jarrett            Etobicoke      6/11  M30 - 34      600    8     40   18:51  4:43    19    43 1:00:27  29.8     10    22   35:07  4:53         
   38     1:55:06 Jeff Eisen              Kingston       7/11  M30 - 34      697    9     44   19:03  4:46    5     34   58:08  31.0     7     44   37:56  5:17         
   39     1:55:30 Suzan Ribenboim         Simpsonville   2/6   W40 - 44      752    1     33   18:30  4:38    2     47 1:00:53  29.6     1     34   36:09  5:02         
   40     1:55:40 Matthew Hustler         Burlington     3/5   M25 - 29      733    3     34   18:31  4:38    3     48 1:01:03  29.5     3     32   36:07  5:01         
   41     1:56:15 Bill Legere             Kingston       8/9   M35 - 39      769    8     41   18:52  4:43    8     31   57:12  31.5     9     56   40:12  5:35         
   42 CLY 1:57:06 Peter Kingston          Kingston       3/12  M45 - 49      777    5     49   19:26  4:52    4     41 1:00:11  29.9     3     40   37:29  5:13         
   43     1:57:08 Brian Lewis             Kingston       7/12  M40 - 44      695    7     50   19:27  4:52    8     42 1:00:12  29.9     6     41   37:30  5:13         
   44     1:57:51 Steve McCready          Kingston       9/9   M35 - 39      795    7     30   18:17  4:35    9     67 1:03:55  28.2     5     25   35:39  4:58         
   45     1:57:57 Joan Scibetta           Brewerton      2/8   W35 - 39      698    2     42   18:54  4:44    3     39   59:31  30.2     3     54   39:32  5:30         
   46     1:58:17 David Doyle             Stratford      4/12  M45 - 49      745    4     35   18:33  4:39    5     45 1:00:29  29.8     5     53   39:15  5:28         
   47     1:58:22 Lynn McIntyre           Perth          5/12  M45 - 49      700    2     27   18:12  4:33    6     52 1:01:57  29.1     4     47   38:14  5:19         
   48     1:58:40 Brenda Ross             Ottawa         3/8   W35 - 39      731    1     36   18:37  4:40    5     61 1:03:00  28.6     2     37   37:04  5:09         
   49     1:59:03 Margarita Sviajina      Kingston       2/6   W30 - 34      715    2     39   18:46  4:42    2     59 1:02:47  28.7     2     42   37:31  5:13         
   50     1:59:36 Kevin Collins           Kingston       8/11  M30 - 34      758    10    51   19:39  4:55    6     53 1:02:15  28.9     6     43   37:43  5:15         
   51     2:00:09 Jennifer Brown          Aylmer         1/7   W25 - 29      703    1     46   19:08  4:47    4     71 1:04:30  27.9     1     36   36:32  5:05         
   52     2:00:30 Kelly Cranston          Belleville     2/7   W25 - 29      714    6     84   22:58  5:45    1     44 1:00:28  29.8     2     38   37:05  5:09         
   53     2:00:40 Ed Ferguson             Bath           3/8   M50 - 54      696    5     61   20:30  5:08    4     50 1:01:21  29.3     3     51   38:51  5:24         
   54     2:03:10 Craig Campbell          Odessa         9/11  M30 - 34      751    7     38   18:42  4:41    7     66 1:03:29  28.4     8     63   41:00  5:42         
   55     2:03:24 Diane Porteous          Kingston       1/3   W45 - 49      783    1     76   22:20  5:35    1     57 1:02:44  28.7     1     49   38:21  5:20         
   56     2:03:38 Kate Hart               Ottawa         3/6   W40 - 44      748    3     65   20:51  5:13    3     54 1:02:18  28.9     3     60   40:30  5:38         
   57     2:03:41 Jim Porteous            Kingston       6/12  M45 - 49      782    10    78   22:22  5:36    3     40   59:52  30.1     9     68   41:28  5:46         
   58     2:03:43 Eric Morrow             Toronto        4/5   M25 - 29      775    4     56   20:05  5:02    4     65 1:03:13  28.5     4     59   40:26  5:37         
   59     2:04:03 Melissa Hart            Kingston       3/7   W25 - 29      738    5     66   20:59  5:15    2     64 1:03:10  28.5     3     55   39:55  5:33         
   60     2:04:08 Shannon Thompson        Kingston       4/8   W35 - 39      788    5     58   20:14  5:04    4     58 1:02:47  28.7     4     65   41:08  5:43         
   61     2:04:18 Peter Morden            Oakville       8/12  M40 - 44      756    9     69   21:26  5:22    9     55 1:02:19  28.9     10    61   40:34  5:38         
   62     2:04:26 Phil Montgomery         Kingston       9/12  M40 - 44      759    11    85   23:00  5:45    7     38   59:09  30.4     11    71   42:18  5:53         
   63     2:04:31 George Taylor           Yarker        10/11  M30 - 34      707    5     26   18:11  4:33    8     68 1:04:06  28.1     10    70   42:16  5:53         
   64     2:04:49 Peter Ellis             Kingston      10/12  M40 - 44      734    8     67   21:22  5:21    10    62 1:03:03  28.6     9     58   40:25  5:37         
   65     2:05:19 Bill Duphney            Wolfe Island   4/8   M50 - 54      706    3     52   19:41  4:56    7     77 1:06:46  27.0     4     52   38:53  5:24         
   66     2:05:28 Paul Hibbins            Toronto        5/8   M50 - 54      736    6     73   21:54  5:29    3     49 1:01:06  29.5     5     72   42:29  5:54         
   67     2:05:29 Natalie Daigle          Kingston       5/8   W35 - 39      724    4     54   19:59  5:00    1     35   58:17  30.9     5     88   47:14  6:34         
   68     2:06:24 Jim Keech               Bath           7/12  M45 - 49      727    7     55   20:04  5:01    7     74 1:05:33  27.5     6     62   40:48  5:40         
   69 CLY 2:07:05 Kirk Fachnie            Kemptville     6/8   M50 - 54      740    4     60   20:28  5:07    5     51 1:01:48  29.1     6     80   44:50  6:14         
   70     2:07:28 Airlie Pullen           Toronto        2/4   W20 - 24      753    2     72   21:52  5:28    2     56 1:02:38  28.7     2     74   42:59  5:59         
   71     2:08:48 Michael Magill          Kingston      11/12  M40 - 44      772    10    70   21:28  5:22    12    79 1:07:05  26.8     8     57   40:16  5:36         
   72     2:10:06 Amy Fisher              Kingston       4/7   W25 - 29      691    3     63   20:48  5:12    3     70 1:04:24  28.0     6     82   44:56  6:15         
   73     2:10:16 Carolyn Bonta           Kingston       5/7   W25 - 29      739    4     64   20:49  5:13    5     73 1:05:20  27.6     4     75   44:07  6:08         
   74     2:10:27 Derrick McKay           Courtice      12/12  M40 - 44      750    12    87   23:11  5:48    11    63 1:03:05  28.5     12    77   44:12  6:09         
   75     2:10:36 Jim Storms              Kingston       8/12  M45 - 49      725    12    80   22:34  5:39    8     75 1:05:57  27.3     10    69   42:07  5:51         
   76     2:10:54 Bryan Miller            London         9/12  M45 - 49      713    9     71   21:51  5:28    9     81 1:07:58  26.5     7     64   41:06  5:43         
   77     2:11:27 John Hall               Kingston       7/8   M50 - 54      797    7     89   23:43  5:56    6     60 1:02:50  28.7     7     81   44:55  6:15         
   78     2:11:43 Monika Dutt             Kingston       6/7   W25 - 29      729    2     57   20:10  5:03    6     80 1:07:06  26.8     5     79   44:28  6:11         
   79     2:11:55 Michael O'Connor        Kingston      10/12  M45 - 49      710    8     68   21:24  5:21    10    83 1:09:18  26.0     8     66   41:14  5:44         
   80     2:15:28 James De Melo           Georgetown    11/11  M30 - 34      693    11    81   22:38  5:40    10    88 1:11:34  25.2     9     67   41:16  5:44         
   81     2:17:39 Tanya MacNeil           Peterborough   3/6   W30 - 34      761    5     88   23:11  5:48    4     85 1:10:09  25.7     4     78   44:20  6:10         
   82     2:17:39 Kerry Hayes             Peterborough   4/6   W30 - 34      764    4     86   23:08  5:47    5     86 1:10:24  25.6     3     76   44:08  6:08         
   83     2:17:40 Vanessa Gillis          Kingston       3/4   W20 - 24      766    3     92   24:42  6:11    3     76 1:06:43  27.0     3     84   46:16  6:26         
   84     2:19:35 Shirley Lindenberg      Belleville     4/6   W40 - 44      743    6     95   25:21  6:21    4     69 1:04:13  28.0     6     92   50:02  6:57         
   85     2:20:09 Maggie Lucas            Belleville     5/6   W30 - 34      760    3     75   22:18  5:35    3     84 1:10:06  25.7     6     90   47:45  6:38         
   86     2:20:29 Luc Monette             Ottawa        11/12  M45 - 49      768    6     53   19:43  4:56    12    95 1:18:10  23.0     11    73   42:37  5:56         
   87     2:20:55 Dennis Doherty          Kingston       2/2   M60 & Over    705    2     74   22:02  5:31    2     87 1:10:56  25.4     2     91   47:58  6:40         
   88     2:23:58 David Edwards           Kingston      12/12  M45 - 49      796    11    79   22:24  5:36    11    90 1:15:14  23.9     12    85   46:21  6:27         
   89     2:25:27 Sharon McGrath          Toronto        5/6   W40 - 44      779    5     91   24:18  6:05    5     89 1:14:12  24.3     5     87   46:58  6:32         
   90     2:27:18 Heather Storms          Kingston       6/8   W35 - 39      717    6     82   22:45  5:42    7     93 1:16:53  23.4     6     89   47:41  6:38         
   91     2:29:47 Deborah Bradford        Kingston       4/4   W20 - 24      767    4     96   25:39  6:25    4     82 1:08:54  26.1     4     94   55:15  7:41         
   92 CLY 2:31:34 Cheryl Runions          Kingston       7/8   W35 - 39      718    7     99   27:31  6:53    6     78 1:06:52  26.9     7     95   57:11  7:57         
   93     2:33:30 Rhiannon Edwards        Kingston       1/1   Junior Women  793    1     83   22:52  5:43    1     96 1:19:59  22.5     1     93   50:40  7:03         
   94     2:34:26 Sandra Landon           Kingston       6/6   W40 - 44      799    4     77   22:20  5:35    6     99 1:27:05  20.7     4     83   45:01  6:16         
   95     2:39:01 Colin Barker            Ottawa         5/5   M25 - 29      719    5     90   24:09  6:03    5     94 1:17:32  23.2     5     96   57:21  7:58         
   96     2:40:27 Jaelyn Caudle           Kingston       6/6   W30 - 34      771    6     93   25:00  6:15    6    100 1:28:33  20.3     5     86   46:55  6:31         
   97     2:42:02 Peggy Jasvins           Kingston       2/3   W45 - 49      723    3    100   28:08  7:02    2     92 1:16:31  23.5     2     97   57:24  7:59         
   98     2:46:34 Amie Domingo            Kingston       7/7   W25 - 29      694    7     94   25:17  6:20    7     97 1:21:21  22.1     7     99   59:57  8:20         
   99     2:53:12 Margaret McCutcheon     Kingston       8/8   W35 - 39      720    8    102   29:14  7:19    8     98 1:22:32  21.8     8    100 1:01:28  8:33         
  100     2:54:59 Terry Burns             Kingston       3/3   W45 - 49      712    2     97   26:42  6:41    3    101 1:29:35  20.1     3     98   58:43  8:10         
  101 CLY 2:56:31 Mike Walker             Kingston       8/8   M50 - 54      728    8     98   27:23  6:51    8     91 1:16:17  23.6     8    102 1:12:52 10:08         
  102     3:07:52 Patricia Shaw           Burlington     1/1   W50 - 54      742    1    101   28:20  7:05    1    102 1:39:22  18.1     1    101 1:02:07  8:38    1:55